Aérodrome :
LOGIN :

S'inscrire | Disclaimer

   EN    FR    IT 

 










Légende :    VFR   VFR Marginal   IFR   IFR Intensif   IFR Très Intensif
Visi : 
Plafond : 
>= 8 km
>= 3000ft
5 à 8 km
1000 à 3000 ft
1500m à 5 km
500 à 1000 ft
800 à 1500m
200 à 500 ft
< 800m
< 200 ft
Symboles :   Orages  Brouillard  Fortes neiges  Fortes précipitations  Vent > 20 kt
SIGMETs :   Divers  Orages  Givrage  Turbulence  Onde Orograph.  Cendres Volcan.







- Altitude de l'aérodrome : 1966 ft
- Code IATA : SGE


EDGS - Siegerland

DERNIER METAR :
  • 230920Z 24005KT 9000 SCT003 BKN049 12/12 Q1016

METARs EXPIRÉS :
  • 230850Z 25005KT 9000 -RA FEW002 SCT041 BKN049 12/11 Q1016 RERA
  • 230820Z 24007KT 7000 RA FEW002 BKN049 12/11 Q1015
  • 230750Z 25006KT 220V280 6000 -RA BCFG FEW001 SCT003 BKN049 12/11 Q1015 RERA
  • 230720Z 24007KT 4000 RA BCFG BKN003 12/11 Q1015
  • 230650Z 24006KT 4000 RA BCFG BKN003 BKN049 12/12 Q1015

TAF TAF EDGS
Valide du 23 à 09h jusqu'au 23 à 18h UTC


230800Z 2309/2318 28008KT 8000 SCT003 BKN030
TEMPO 2309/2311 RA BKN003
PROB30
TEMPO 2311/2313 BKN010
Pas de NOTAMs connus pour ce terrain.



MET'MAP, la Météo Aéronautique d'un coup d'oeil ! - Copyright ORBIFLY Décembre 2007 - Disclaimer

ORBIFLY MET'MAP TEAM :

Programmation & Développement : Alexandra Zaïnal
Conception & Développement : Baudouin d'Aumeries
Co-Programmation & Développement : Marc-Olivier Méhu
Soutien technique & logistique : Manuel Goepfert

Contact : metmap@orbifly.com




SOURCES & CREDITS :

   NOAA